Terminal Aerodrome Forecast
Issued by NWS Jackson, KY

Home | Current Version | Previous Version | Text Only | Print | Product List | Glossary On
Versions: 1 2 3 4 5 6 7 8 9 10 11 12 13 14 15 16 17 18 19
000
FTUS43 KJKL 020521
TAFLOZ
TAF
KLOZ 020521Z 0206/0306 21005KT 2SM -RA BR OVC003
     FM021100 32003KT P6SM OVC004
     FM021400 VRB03KT P6SM SCT010 BKN022
     FM021700 VRB03KT P6SM FEW020 SCT100
     FM022100 VRB03KT P6SM FEW030 SCT250=

USA.gov is the U.S. government's official web portal to all federal, state and local government web resources and services.